Pagina principale
METAR-TAF:

METAR-TAF

Aeroporti :

Szolnok, Ungheria

latitudine: 47-07N, longitudine: 020-14E, altezza: 89 m

Osservazione

Il bollettino è stato emesso 35 minuti fa, alle 17:15 UTC
Vento 4 kt da sud-ovest
Temperature 2°C
Umidità 93%
Pressione 1016 hPa
Visibilità 10 km o più
Poco nuvoloso ad un'altezza di 3000 ft

METAR: LHSN 061715Z 23004KT 9999 FEW030 02/01 Q1016 NOSIG RMK BLU

Ora: 18:50 (17:50 UTC)

Previsione

Il bollettino è stato emesso 35 minuti fa, alle 17:15 UTC
Previsione valida dal 06 alle 18 UTC al 07 alle 03 UTC
Vento 5 kt da sud-ovest
Visibilità 10 km o più
nessuna nube inferiore a 1500 m e nessun cumulonembo
Evoluzione graduale
dal 06 alle 21 UTC al 06 alle 24 UTC
Visibilità: 6000 m
Evoluzione graduale
dal 07 alle 00 UTC al 07 alle 03 UTC
Visibilità: 2500 m
Nubi sparse ad un'altezza di 4000 ft
Nuvoloso ad un'altezza di 8300 ft
foschia

TAF: LHSN 061715Z 0618/0703 22005KT CAVOK BECMG 0621/0624 6000 NSC BECMG 0700/0703 2500 BR SCT040 BKN083

Osservazioni e previsioni meteorologiche di più di 4000 aeroporti (messaggi METAR e TAF).

Le stazioni disponibili sono rappresentate dai dischi gialli e rossi sulla carta.

Puntare il mouse per vedere il nome della stazione.

Clicca sopra per visualizzare le osservazioni e previsioni meteorologiche.

Per cambiare la mappa : fare clic sui pulsanti verdi con una croce nera per ingrandire, il pulsante verde con un trattino per diminuire, o sulla freccia verde per le mappe adiacenti.


METAR-TAF: